Time;durP1;ratioP1;P1;durP2;ratioP2;P2;SDS_P1;SDS_P2;PMS_P1;PMS_P2;Temp;Humidity;BMP_temperature;BMP_pressure;BME280_temperature;BME280_humidity;BME280_pressure;Samples;Min_cycle;Max_cycle;Signal;HPM_P1;HPM_P2
2021/08/20 00:01:32;;;;;;;12.98;8.98;;;;;;;-145.01;100.00;64805.59;4994444;28;20039;-63
2021/08/20 00:03:58;;;;;;;16.52;10.00;;;;;;;-145.01;100.00;64805.59;4995885;28;20037;-63
2021/08/20 00:06:23;;;;;;;13.20;8.38;;;;;;;-145.01;100.00;64805.59;4994156;28;20496;-63
2021/08/20 00:08:49;;;;;;;13.52;7.70;;;;;;;-145.01;100.00;64805.59;4995716;28;20042;-63
2021/08/20 00:11:14;;;;;;;13.60;8.50;;;;;;;-145.01;100.00;64805.59;4995428;28;20035;-63
2021/08/20 00:13:40;;;;;;;16.25;9.32;;;;;;;-145.01;100.00;64805.59;4994661;28;20488;-62
2021/08/20 00:16:06;;;;;;;16.73;9.60;;;;;;;-145.01;100.00;64805.59;4995619;28;20434;-62
2021/08/20 00:18:32;;;;;;;19.50;10.25;;;;;;;-145.01;100.00;64805.59;4995918;28;20056;-63
2021/08/20 00:20:57;;;;;;;16.48;8.75;;;;;;;-145.01;100.00;64805.59;4995314;28;20058;-63
2021/08/20 00:23:23;;;;;;;16.23;9.25;;;;;;;-145.01;100.00;64805.59;4994414;28;20065;-63
2021/08/20 00:25:48;;;;;;;19.15;9.85;;;;;;;-145.01;100.00;64805.59;4995350;28;20035;-63
2021/08/20 00:28:15;;;;;;;17.90;9.65;;;;;;;-145.01;100.00;64805.59;4995836;28;20457;-63
2021/08/20 00:30:41;;;;;;;16.67;9.15;;;;;;;-145.01;100.00;64805.59;4994039;28;20042;-63
2021/08/20 00:33:06;;;;;;;18.50;9.65;;;;;;;-145.01;100.00;64805.59;4994381;28;20026;-63
2021/08/20 00:35:31;;;;;;;17.58;10.60;;;;;;;-145.01;100.00;64805.59;4995104;28;20057;-63
2021/08/20 00:37:57;;;;;;;17.80;9.90;;;;;;;-145.01;100.00;64805.59;4994158;28;20470;-62
2021/08/20 00:40:22;;;;;;;15.63;9.82;;;;;;;-145.01;100.00;64805.59;4994898;28;20049;-63
2021/08/20 00:42:49;;;;;;;18.88;10.95;;;;;;;-145.01;100.00;64805.59;4994350;28;20026;-63
2021/08/20 00:45:14;;;;;;;16.73;9.93;;;;;;;-145.01;100.00;64805.59;4995017;28;20038;-63
2021/08/20 00:47:40;;;;;;;17.27;10.25;;;;;;;-145.01;100.00;64805.59;4995048;28;20034;-63
2021/08/20 00:50:06;;;;;;;19.65;10.48;;;;;;;-145.01;100.00;64805.59;4994726;28;20032;-63
2021/08/20 00:52:32;;;;;;;21.27;11.45;;;;;;;-145.01;100.00;64805.59;4995108;28;20046;-62
2021/08/20 00:54:58;;;;;;;19.92;10.93;;;;;;;-145.01;100.00;64805.59;4993650;28;20481;-62
2021/08/20 00:57:23;;;;;;;18.73;11.05;;;;;;;-145.01;100.00;64805.59;4994542;28;20070;-62
2021/08/20 00:59:48;;;;;;;18.88;10.95;;;;;;;-145.01;100.00;64805.59;4995071;28;20393;-62
2021/08/20 01:02:15;;;;;;;19.27;11.55;;;;;;;-145.01;100.00;64805.59;4994604;28;20041;-62
2021/08/20 01:04:40;;;;;;;23.52;11.55;;;;;;;-145.01;100.00;64805.59;4994921;28;20030;-62
2021/08/20 01:07:06;;;;;;;19.65;11.48;;;;;;;-145.01;100.00;64805.59;4994446;28;20037;-62
2021/08/20 01:09:31;;;;;;;18.27;11.57;;;;;;;-145.01;100.00;64805.59;4994501;28;20071;-62
2021/08/20 01:11:57;;;;;;;16.98;10.80;;;;;;;-145.01;100.00;64805.59;4993049;28;20057;-62
2021/08/20 01:14:29;;;;;;;27.05;11.43;;;;;;;-145.01;100.00;64805.59;4994635;28;20022;-62
2021/08/20 01:16:55;;;;;;;18.52;10.88;;;;;;;-145.01;100.00;64805.59;4994228;28;20038;-62
2021/08/20 01:19:20;;;;;;;17.35;9.88;;;;;;;-145.01;100.00;64805.59;4994653;28;20080;-62
2021/08/20 01:21:46;;;;;;;19.83;11.50;;;;;;;-145.01;100.00;64805.59;4993875;28;20040;-62
2021/08/20 01:24:11;;;;;;;23.50;11.77;;;;;;;-145.01;100.00;64805.59;4994260;28;20030;-62
2021/08/20 01:26:37;;;;;;;27.85;12.00;;;;;;;-145.01;100.00;64805.59;4992721;28;20046;-62
2021/08/20 01:29:02;;;;;;;17.98;11.52;;;;;;;-145.01;100.00;64805.59;4994534;28;20026;-62
2021/08/20 01:31:28;;;;;;;23.05;11.40;;;;;;;-145.01;100.00;64805.59;4994055;28;20039;-63
2021/08/20 01:33:54;;;;;;;15.88;10.40;;;;;;;-145.01;100.00;64805.59;4994228;28;20033;-63
2021/08/20 01:36:20;;;;;;;18.73;10.23;;;;;;;-145.01;100.00;64805.59;4992709;28;20039;-62
2021/08/20 01:38:55;;;;;;;23.70;11.32;;;;;;;-145.01;100.00;64805.59;4994100;28;20404;-62
2021/08/20 01:41:22;;;;;;;17.92;10.10;;;;;;;-145.01;100.00;64805.59;4993491;28;20042;-62
2021/08/20 01:43:47;;;;;;;23.58;10.15;;;;;;;-145.01;100.00;64805.59;4994041;28;20061;-62
2021/08/20 01:46:13;;;;;;;16.85;10.07;;;;;;;-145.01;100.00;64805.59;4993677;28;20041;-62
2021/08/20 01:48:45;;;;;;;18.88;10.02;;;;;;;-145.01;100.00;64805.59;4992812;28;20030;-62
2021/08/20 01:51:13;;;;;;;18.42;10.90;;;;;;;-145.01;100.00;64805.59;4993548;28;20034;-63
2021/08/20 01:53:38;;;;;;;19.13;10.93;;;;;;;-145.01;100.00;64805.59;4993797;28;20088;-62
2021/08/20 01:56:04;;;;;;;25.52;12.55;;;;;;;-145.01;100.00;64805.59;4993370;28;20042;-62
2021/08/20 01:58:29;;;;;;;19.05;12.45;;;;;;;-145.01;100.00;64805.59;4993870;28;20037;-62
2021/08/20 02:00:54;;;;;;;22.67;12.77;;;;;;;-145.01;100.00;64805.59;4993521;28;20042;-62
2021/08/20 02:03:20;;;;;;;20.15;12.77;;;;;;;-145.01;100.00;64805.59;4993758;28;20029;-62
2021/08/20 02:05:45;;;;;;;20.13;12.20;;;;;;;-145.01;100.00;64805.59;4993224;28;20117;-62
2021/08/20 02:08:11;;;;;;;26.70;12.30;;;;;;;-145.01;100.00;64805.59;4993988;28;20069;-62
2021/08/20 02:10:36;;;;;;;22.92;12.85;;;;;;;-145.01;100.00;64805.59;4992965;28;20400;-63
2021/08/20 02:13:02;;;;;;;20.52;12.82;;;;;;;-145.01;100.00;64805.59;4993766;28;20030;-62
2021/08/20 02:15:27;;;;;;;21.30;12.55;;;;;;;-145.01;100.00;64805.59;4993313;28;20030;-62
2021/08/20 02:17:53;;;;;;;20.27;11.20;;;;;;;-145.01;100.00;64805.59;4992200;28;20026;-62
2021/08/20 02:20:18;;;;;;;19.02;11.77;;;;;;;-145.01;100.00;64805.59;4992881;28;20022;-62
2021/08/20 02:22:44;;;;;;;20.13;12.00;;;;;;;-145.01;100.00;64805.59;4993295;28;20026;-63
2021/08/20 02:25:09;;;;;;;16.95;10.45;;;;;;;-145.01;100.00;64805.59;4992864;28;20033;-63
2021/08/20 02:27:35;;;;;;;20.40;12.38;;;;;;;-145.01;100.00;64805.59;4992145;28;20037;-62
2021/08/20 02:30:00;;;;;;;19.42;11.32;;;;;;;-145.01;100.00;64805.59;4993255;28;20026;-63
2021/08/20 02:32:25;;;;;;;24.10;12.10;;;;;;;-145.01;100.00;64805.59;4993129;28;20046;-63
2021/08/20 02:34:51;;;;;;;19.75;12.13;;;;;;;-145.01;100.00;64805.59;4993155;28;20030;-62
2021/08/20 02:37:16;;;;;;;19.95;11.23;;;;;;;-145.01;100.00;64805.59;4975295;28;20042;-63
2021/08/20 02:39:42;;;;;;;20.63;11.82;;;;;;;-145.01;100.00;64805.59;4993208;28;20085;-63
2021/08/20 02:42:07;;;;;;;24.02;11.63;;;;;;;-145.01;100.00;64805.59;4991449;28;20061;-63
2021/08/20 02:44:33;;;;;;;25.67;11.95;;;;;;;-145.01;100.00;64805.59;4993092;28;20030;-63
2021/08/20 02:46:58;;;;;;;18.17;11.13;;;;;;;-145.01;100.00;64805.59;4991444;28;20035;-63
2021/08/20 02:49:24;;;;;;;17.63;10.68;;;;;;;-145.01;100.00;64805.59;4993063;28;20033;-63
2021/08/20 02:51:49;;;;;;;17.00;10.45;;;;;;;-145.01;100.00;64805.59;4991306;28;20038;-62
2021/08/20 02:54:15;;;;;;;20.10;10.35;;;;;;;-145.01;100.00;64805.59;4995827;28;20381;-63
2021/08/20 02:56:40;;;;;;;15.40;9.55;;;;;;;-145.01;100.00;64805.59;4996805;28;20041;-63
2021/08/20 02:59:06;;;;;;;14.70;9.73;;;;;;;-145.01;100.00;64805.59;4995978;28;20036;-62
2021/08/20 03:01:31;;;;;;;18.38;8.85;;;;;;;-145.01;100.00;64805.59;4996492;28;20042;-63
2021/08/20 03:03:57;;;;;;;17.67;9.25;;;;;;;-145.01;100.00;64805.59;4995760;28;20037;-63
2021/08/20 03:06:22;;;;;;;13.82;9.25;;;;;;;-145.01;100.00;64805.59;4995721;28;20096;-63
2021/08/20 03:08:47;;;;;;;14.65;9.45;;;;;;;-145.01;100.00;64805.59;4996784;28;20058;-63
2021/08/20 03:11:13;;;;;;;14.68;8.63;;;;;;;-145.01;100.00;64805.59;4996502;28;20035;-63
2021/08/20 03:13:38;;;;;;;14.57;9.55;;;;;;;-145.01;100.00;64805.59;4996939;28;20026;-63
2021/08/20 03:16:04;;;;;;;18.25;9.45;;;;;;;-145.01;100.00;64805.59;4994857;28;20519;-63
2021/08/20 03:18:29;;;;;;;13.77;9.38;;;;;;;-145.01;100.00;64805.59;4995345;28;20065;-63
2021/08/20 03:20:55;;;;;;;19.33;10.20;;;;;;;-145.01;100.00;64805.59;4996270;28;20046;-63
2021/08/20 03:23:20;;;;;;;18.48;9.90;;;;;;;-145.01;100.00;64805.59;4996525;28;20034;-63
2021/08/20 03:25:46;;;;;;;18.92;9.95;;;;;;;-145.01;100.00;64805.59;4996378;28;20137;-63
2021/08/20 03:28:11;;;;;;;14.98;8.90;;;;;;;-145.01;100.00;64805.59;4996749;28;20033;-63
2021/08/20 03:30:37;;;;;;;17.63;9.70;;;;;;;-145.01;100.00;64805.59;4996127;28;20046;-63
2021/08/20 03:33:02;;;;;;;16.30;9.68;;;;;;;-145.01;100.00;64805.59;4995300;28;20030;-63
2021/08/20 03:35:28;;;;;;;17.08;9.52;;;;;;;-145.01;100.00;64805.59;4994865;28;20041;-62
2021/08/20 03:37:54;;;;;;;15.95;9.48;;;;;;;-145.01;100.00;64805.59;4996605;28;20073;-63
2021/08/20 03:40:19;;;;;;;19.80;9.75;;;;;;;-145.01;100.00;64805.59;4996325;28;20045;-63
2021/08/20 03:42:45;;;;;;;16.45;8.73;;;;;;;-145.01;100.00;64805.59;4996657;28;20046;-63
2021/08/20 03:45:11;;;;;;;17.13;8.88;;;;;;;-145.01;100.00;64805.59;4996053;28;20539;-63
2021/08/20 03:47:37;;;;;;;16.42;9.20;;;;;;;-145.01;100.00;64805.59;4996304;28;20027;-63
2021/08/20 03:50:03;;;;;;;15.27;9.38;;;;;;;-145.01;100.00;64805.59;4994496;28;20076;-63
2021/08/20 03:52:29;;;;;;;16.90;8.93;;;;;;;-145.01;100.00;64805.59;4996217;28;20196;-63
2021/08/20 03:54:54;;;;;;;16.85;9.80;;;;;;;-145.01;100.00;64805.59;4996280;28;20030;-63
2021/08/20 03:57:20;;;;;;;18.50;9.82;;;;;;;-145.01;100.00;64805.59;4995759;28;20055;-63
2021/08/20 03:59:45;;;;;;;21.42;8.98;;;;;;;-145.01;100.00;64805.59;4996118;28;20465;-62
2021/08/20 04:02:10;;;;;;;15.88;9.18;;;;;;;-145.01;100.00;64805.59;4995596;28;20045;-63
2021/08/20 04:04:36;;;;;;;22.27;10.23;;;;;;;-145.01;100.00;64805.59;4995747;28;20164;-63
2021/08/20 04:07:03;;;;;;;19.63;8.93;;;;;;;-145.01;100.00;64805.59;4995419;28;20038;-63
2021/08/20 04:09:28;;;;;;;18.75;9.23;;;;;;;-145.01;100.00;64805.59;4995746;28;20408;-63
2021/08/20 04:11:54;;;;;;;17.35;10.43;;;;;;;-145.01;100.00;64805.59;4994124;28;20038;-63
2021/08/20 04:14:20;;;;;;;16.23;8.85;;;;;;;-145.01;100.00;64805.59;4995922;28;20050;-62
2021/08/20 04:16:46;;;;;;;19.98;9.10;;;;;;;-145.01;100.00;64805.59;4995198;28;20101;-63
2021/08/20 04:19:11;;;;;;;16.52;8.40;;;;;;;-145.01;100.00;64805.59;4995786;28;20034;-63
2021/08/20 04:21:36;;;;;;;11.93;7.65;;;;;;;-145.01;100.00;64805.59;4995407;28;20047;-62
2021/08/20 04:24:03;;;;;;;12.77;7.45;;;;;;;-145.01;100.00;64805.59;4995423;28;20041;-63
2021/08/20 04:26:28;;;;;;;12.10;7.47;;;;;;;-145.01;100.00;64805.59;4995329;28;20358;-63
2021/08/20 04:28:53;;;;;;;14.13;7.78;;;;;;;-145.01;100.00;64805.59;4995677;28;20096;-63
2021/08/20 04:31:19;;;;;;;11.30;7.18;;;;;;;-145.01;100.00;64805.59;4995261;28;20046;-63
2021/08/20 04:33:44;;;;;;;14.43;7.53;;;;;;;-145.01;100.00;64805.59;4995523;28;20488;-61
2021/08/20 04:36:10;;;;;;;15.15;6.68;;;;;;;-145.01;100.00;64805.59;4995044;28;20038;-62
2021/08/20 04:38:38;;;;;;;12.05;6.65;;;;;;;-145.01;100.00;64805.59;4994104;28;20022;-63
2021/08/20 04:41:04;;;;;;;11.80;7.10;;;;;;;-145.01;100.00;64805.59;4994937;28;20039;-62
2021/08/20 04:43:29;;;;;;;11.15;6.53;;;;;;;-145.01;100.00;64805.59;4995187;28;20037;-62
2021/08/20 04:45:55;;;;;;;12.50;7.10;;;;;;;-145.01;100.00;64805.59;4994682;28;20035;-62
2021/08/20 04:48:20;;;;;;;10.27;6.00;;;;;;;-145.01;100.00;64805.59;4995165;28;20026;-62
2021/08/20 04:50:46;;;;;;;9.68;6.45;;;;;;;-145.01;100.00;64805.59;4995045;28;20034;-62
2021/08/20 04:53:11;;;;;;;16.67;7.13;;;;;;;-145.01;100.00;64805.59;4995167;28;20385;-62
2021/08/20 04:55:36;;;;;;;12.68;7.05;;;;;;;-145.01;100.00;64805.59;4994462;28;20039;-63
2021/08/20 04:58:02;;;;;;;13.20;7.28;;;;;;;-145.01;100.00;64805.59;4995185;28;20527;-62
2021/08/20 05:00:27;;;;;;;14.75;7.75;;;;;;;-145.01;100.00;64805.59;4993273;28;20038;-62
2021/08/20 05:02:53;;;;;;;12.43;7.15;;;;;;;-145.01;100.00;64805.59;4994895;28;20045;-62
2021/08/20 05:05:18;;;;;;;13.32;7.30;;;;;;;-145.01;100.00;64805.59;4993451;28;20035;-62
2021/08/20 05:07:44;;;;;;;15.88;7.20;;;;;;;-145.01;100.00;64805.59;4995164;28;20345;-62
2021/08/20 05:10:10;;;;;;;16.20;7.10;;;;;;;-145.01;100.00;64805.59;4994311;28;20430;-62
2021/08/20 05:12:39;;;;;;;12.52;6.53;;;;;;;-145.01;100.00;64805.59;4994393;28;20054;-62
2021/08/20 05:15:06;;;;;;;11.95;6.47;;;;;;;-145.01;100.00;64805.59;4994290;28;20445;-63
2021/08/20 05:17:31;;;;;;;14.25;7.45;;;;;;;-145.01;100.00;64805.59;4994161;28;20030;-62
2021/08/20 05:19:57;;;;;;;12.45;7.32;;;;;;;-145.01;100.00;64805.59;4994797;28;20033;-62
2021/08/20 05:22:22;;;;;;;12.38;7.00;;;;;;;-145.01;100.00;64805.59;4994245;28;20046;-62
2021/08/20 05:24:47;;;;;;;12.65;6.38;;;;;;;-145.01;100.00;64805.59;4994671;28;20026;-62
2021/08/20 05:27:13;;;;;;;12.43;6.63;;;;;;;-145.01;100.00;64805.59;4994134;28;20039;-62
2021/08/20 05:29:38;;;;;;;10.88;6.55;;;;;;;-145.01;100.00;64805.59;4994769;28;20027;-62
2021/08/20 05:32:04;;;;;;;17.90;6.82;;;;;;;-145.01;100.00;64805.59;4994152;28;20089;-62
2021/08/20 05:34:30;;;;;;;11.65;6.80;;;;;;;-145.01;100.00;64805.59;4994494;28;20081;-62
2021/08/20 05:36:55;;;;;;;11.20;6.68;;;;;;;-145.01;100.00;64805.59;4993785;28;20042;-62
2021/08/20 05:39:21;;;;;;;18.77;7.70;;;;;;;-145.01;100.00;64805.59;4994399;28;20034;-61
2021/08/20 05:41:46;;;;;;;12.25;7.30;;;;;;;-145.01;100.00;64805.59;4993813;28;20034;-62
2021/08/20 05:44:11;;;;;;;17.30;8.20;;;;;;;-145.01;100.00;64805.59;4994142;28;20027;-61
2021/08/20 05:46:37;;;;;;;14.57;7.63;;;;;;;-145.01;100.00;64805.59;4992280;28;20053;-61
2021/08/20 05:49:05;;;;;;;13.75;6.43;;;;;;;-145.01;100.00;64805.59;4994025;28;20030;-62
2021/08/20 05:51:31;;;;;;;10.15;6.05;;;;;;;-145.01;100.00;64805.59;4993736;28;20034;-62
2021/08/20 05:53:57;;;;;;;16.02;6.93;;;;;;;-145.01;100.00;64805.59;4993912;28;20029;-61
2021/08/20 05:56:22;;;;;;;10.48;6.68;;;;;;;-145.01;100.00;64805.59;4993484;28;20042;-61
2021/08/20 05:58:48;;;;;;;10.68;6.05;;;;;;;-145.01;100.00;64805.59;4993925;28;20046;-62
2021/08/20 06:01:14;;;;;;;10.60;6.72;;;;;;;-145.01;100.00;64805.59;4993589;28;20034;-63
2021/08/20 06:03:40;;;;;;;10.38;5.88;;;;;;;-145.01;100.00;64805.59;4993830;28;20023;-62
2021/08/20 06:06:05;;;;;;;10.48;6.07;;;;;;;-145.01;100.00;64805.59;4993388;28;20034;-62
2021/08/20 06:08:31;;;;;;;11.88;5.80;;;;;;;-145.01;100.00;64805.59;4992044;28;20026;-62
2021/08/20 06:10:56;;;;;;;9.32;5.97;;;;;;;-145.01;100.00;64805.59;4993192;28;20042;-62
2021/08/20 06:13:22;;;;;;;8.98;5.80;;;;;;;-145.01;100.00;64805.59;4993563;28;20031;-62
2021/08/20 06:15:47;;;;;;;11.20;5.93;;;;;;;-145.01;100.00;64805.59;4993067;28;20081;-62
2021/08/20 06:18:12;;;;;;;8.63;5.53;;;;;;;-145.01;100.00;64805.59;4992592;28;20446;-62
2021/08/20 06:20:38;;;;;;;7.93;4.90;;;;;;;-145.01;100.00;64805.59;4993335;28;20038;-62
2021/08/20 06:23:03;;;;;;;10.45;5.90;;;;;;;-145.01;100.00;64805.59;4993558;28;20396;-62
2021/08/20 06:25:29;;;;;;;11.77;5.30;;;;;;;-145.01;100.00;64805.59;4991611;28;20030;-62
2021/08/20 06:27:54;;;;;;;9.80;5.05;;;;;;;-145.01;100.00;64805.59;4992280;28;20030;-62
2021/08/20 06:30:20;;;;;;;9.43;5.82;;;;;;;-145.01;100.00;64805.59;4992762;28;20045;-62
2021/08/20 06:32:45;;;;;;;11.30;5.22;;;;;;;-145.01;100.00;64805.59;4992126;28;20022;-62
2021/08/20 06:35:10;;;;;;;7.85;4.78;;;;;;;-145.01;100.00;64805.59;4992778;28;20414;-62
2021/08/20 06:37:36;;;;;;;9.32;4.90;;;;;;;-145.01;100.00;64805.59;4993149;28;20030;-62
2021/08/20 06:40:03;;;;;;;7.75;5.05;;;;;;;-145.01;100.00;64805.59;4992611;28;20034;-63
2021/08/20 06:42:28;;;;;;;6.45;4.43;;;;;;;-145.01;100.00;64805.59;4993031;28;20038;-62
2021/08/20 06:44:54;;;;;;;7.63;4.47;;;;;;;-145.01;100.00;64805.59;4991744;28;20035;-62
2021/08/20 06:47:19;;;;;;;8.43;4.20;;;;;;;-145.01;100.00;64805.59;4992803;28;20030;-62
2021/08/20 06:49:45;;;;;;;8.75;4.30;;;;;;;-145.01;100.00;64805.59;4992992;28;20026;-62
2021/08/20 06:52:10;;;;;;;10.23;4.22;;;;;;;-145.01;100.00;64805.59;4992631;28;20045;-62
2021/08/20 06:54:36;;;;;;;10.05;4.60;;;;;;;-145.01;100.00;64805.59;4992991;28;20034;-62
2021/08/20 06:57:01;;;;;;;9.60;4.35;;;;;;;-145.01;100.00;64805.59;4992533;28;20050;-62
2021/08/20 06:59:26;;;;;;;7.38;4.13;;;;;;;-145.01;100.00;64805.59;4992829;28;20030;-62
2021/08/20 07:01:52;;;;;;;7.57;4.10;;;;;;;-145.01;100.00;64805.59;4992482;28;20089;-62
2021/08/20 07:04:17;;;;;;;7.28;4.15;;;;;;;-145.01;100.00;64805.59;4993136;28;20384;-62
2021/08/20 07:06:43;;;;;;;9.77;4.28;;;;;;;-145.01;100.00;64805.59;4992689;28;20057;-63
2021/08/20 07:09:08;;;;;;;9.48;4.00;;;;;;;-145.01;100.00;64805.59;4993014;28;20054;-62
2021/08/20 07:11:33;;;;;;;6.65;3.80;;;;;;;-145.01;100.00;64805.59;4992684;28;20366;-62
2021/08/20 07:14:00;;;;;;;6.53;4.18;;;;;;;-145.01;100.00;64805.59;4992801;28;20377;-63
2021/08/20 07:16:26;;;;;;;7.93;4.20;;;;;;;-145.01;100.00;64805.59;4992328;28;20035;-63
2021/08/20 07:18:52;;;;;;;6.35;3.70;;;;;;;-145.01;100.00;64805.59;4992475;28;20031;-64
2021/08/20 07:21:17;;;;;;;6.95;4.07;;;;;;;-145.01;100.00;64805.59;4991127;28;20031;-66
2021/08/20 07:23:42;;;;;;;7.78;4.18;;;;;;;-145.01;100.00;64805.59;4992864;28;20027;-65
2021/08/20 07:26:08;;;;;;;11.35;4.70;;;;;;;-145.01;100.00;64805.59;4990943;28;20038;-64
2021/08/20 07:28:33;;;;;;;6.88;4.60;;;;;;;-145.01;100.00;64805.59;4992270;28;20027;-64
2021/08/20 07:30:59;;;;;;;12.90;4.95;;;;;;;-145.01;100.00;64805.59;4990638;28;20035;-64
2021/08/20 07:33:24;;;;;;;10.00;4.88;;;;;;;-145.01;100.00;64805.59;4992092;28;20481;-64
2021/08/20 07:35:50;;;;;;;10.75;5.68;;;;;;;-145.01;100.00;64805.59;4974464;28;20042;-64
2021/08/20 07:38:15;;;;;;;8.90;4.97;;;;;;;-145.01;100.00;64805.59;4992582;28;20030;-64
2021/08/20 07:40:41;;;;;;;6.43;5.10;;;;;;;-145.01;100.00;64805.59;4994976;28;20484;-64
2021/08/20 07:43:06;;;;;;;9.60;5.30;;;;;;;-145.01;100.00;64805.59;4995842;28;20050;-64
2021/08/20 07:45:32;;;;;;;9.30;5.28;;;;;;;-145.01;100.00;64805.59;4993978;28;20034;-64
2021/08/20 07:47:57;;;;;;;8.32;5.03;;;;;;;-145.01;100.00;64805.59;4995999;28;20468;-64
2021/08/20 07:50:23;;;;;;;13.15;5.05;;;;;;;-145.01;100.00;64805.59;4995547;28;20030;-65
2021/08/20 07:52:48;;;;;;;7.28;5.32;;;;;;;-145.01;100.00;64805.59;4995546;28;20038;-64
2021/08/20 07:55:14;;;;;;;10.05;4.90;;;;;;;-145.01;100.00;64805.59;4995440;28;20034;-64
2021/08/20 07:57:50;;;;;;;11.07;5.50;;;;;;;-145.01;100.00;64805.59;4995596;28;20088;-64
2021/08/20 08:00:18;;;;;;;8.27;5.50;;;;;;;-145.01;100.00;64805.59;4995473;28;20048;-63
2021/08/20 08:02:44;;;;;;;7.50;5.13;;;;;;;-145.01;100.00;64805.59;4994537;28;20033;-63
2021/08/20 08:05:09;;;;;;;7.82;5.05;;;;;;;-145.01;100.00;64805.59;4977640;28;20022;-63
2021/08/20 08:07:35;;;;;;;7.38;5.05;;;;;;;-145.01;100.00;64805.59;4995623;28;20030;-63
2021/08/20 08:10:01;;;;;;;8.90;5.00;;;;;;;-145.01;100.00;64805.59;4994992;28;20053;-64
2021/08/20 08:12:26;;;;;;;9.80;4.63;;;;;;;-145.01;100.00;64805.59;4995432;28;20029;-64
2021/08/20 08:14:51;;;;;;;7.15;4.15;;;;;;;-145.01;100.00;64805.59;4995636;28;20124;-64
2021/08/20 08:17:17;;;;;;;7.30;4.20;;;;;;;-145.01;100.00;64805.59;4993672;28;20034;-64
2021/08/20 08:19:42;;;;;;;8.10;4.18;;;;;;;-145.01;100.00;64805.59;4995328;28;20473;-64
2021/08/20 08:22:08;;;;;;;11.82;5.15;;;;;;;-145.01;100.00;64805.59;4995036;28;20031;-63
2021/08/20 08:24:33;;;;;;;6.95;4.30;;;;;;;-145.01;100.00;64805.59;4995200;28;20030;-63
2021/08/20 08:26:58;;;;;;;6.65;4.60;;;;;;;-145.01;100.00;64805.59;4994695;28;20038;-63
2021/08/20 08:29:24;;;;;;;7.40;4.45;;;;;;;-145.01;100.00;64805.59;4995125;28;20030;-63
2021/08/20 08:31:49;;;;;;;9.00;5.00;;;;;;;-145.01;100.00;64805.59;4993411;28;20511;-64
2021/08/20 08:34:15;;;;;;;7.82;4.90;;;;;;;-145.01;100.00;64805.59;4995271;28;20363;-64
2021/08/20 08:36:40;;;;;;;7.43;4.50;;;;;;;-145.01;100.00;64805.59;4994690;28;20035;-64
2021/08/20 08:39:06;;;;;;;7.63;4.38;;;;;;;-145.01;100.00;64805.59;4994807;28;20374;-63
2021/08/20 08:41:32;;;;;;;8.20;5.28;;;;;;;-145.01;100.00;64805.59;4994624;28;20120;-63
2021/08/20 08:43:59;;;;;;;10.98;5.97;;;;;;;-145.01;100.00;64805.59;4995009;28;20069;-63
2021/08/20 08:46:24;;;;;;;12.50;5.30;;;;;;;-145.01;100.00;64805.59;4994516;28;20567;-63
2021/08/20 08:48:50;;;;;;;12.27;5.97;;;;;;;-145.01;100.00;64805.59;4995019;28;20034;-64
2021/08/20 08:51:15;;;;;;;9.20;4.80;;;;;;;-145.01;100.00;64805.59;4992210;28;20386;-63
2021/08/20 08:53:41;;;;;;;11.35;5.35;;;;;;;-145.01;100.00;64805.59;4993480;28;20397;-63
2021/08/20 08:56:07;;;;;;;8.00;4.97;;;;;;;-145.01;100.00;64805.59;4994286;28;20038;-63
2021/08/20 08:58:32;;;;;;;8.95;4.53;;;;;;;-145.01;100.00;64805.59;4995011;28;20350;-63
2021/08/20 09:00:58;;;;;;;6.40;4.50;;;;;;;-145.01;100.00;64805.59;4994630;28;20037;-63
2021/08/20 09:03:27;;;;;;;7.95;4.53;;;;;;;-145.01;100.00;64805.59;4977556;28;20026;-63
2021/08/20 09:05:54;;;;;;;7.75;4.65;;;;;;;-145.01;100.00;64805.59;4993022;28;20351;-63
2021/08/20 09:08:21;;;;;;;7.53;5.10;;;;;;;-145.01;100.00;64805.59;4994600;28;20026;-63
2021/08/20 09:10:52;;;;;;;9.38;5.63;;;;;;;-145.01;100.00;64805.59;4992853;28;20373;-63
2021/08/20 09:13:17;;;;;;;8.93;4.22;;;;;;;-145.01;100.00;64805.59;4994680;28;20026;-63
2021/08/20 09:15:45;;;;;;;6.20;4.03;;;;;;;-145.01;100.00;64805.59;4992784;28;20040;-63
2021/08/20 09:18:21;;;;;;;7.32;3.67;;;;;;;-145.01;100.00;64805.59;4993217;28;20026;-63
2021/08/20 09:20:47;;;;;;;9.27;4.15;;;;;;;-145.01;100.00;64805.59;4992988;28;20492;-63
2021/08/20 09:23:23;;;;;;;13.70;4.43;;;;;;;-145.01;100.00;64805.59;4994458;28;20038;-64
2021/08/20 09:25:49;;;;;;;8.98;3.92;;;;;;;-145.01;100.00;64805.59;4994296;28;20042;-63
2021/08/20 09:28:17;;;;;;;8.60;3.85;;;;;;;-145.01;100.00;64805.59;4993424;28;20030;-63
2021/08/20 09:30:56;;;;;;;6.97;3.60;;;;;;;-145.01;100.00;64805.59;4993943;28;20039;-64
2021/08/20 09:33:41;;;;;;;6.88;3.65;;;;;;;-145.01;100.00;64805.59;4994405;28;20027;-63
2021/08/20 09:36:14;;;;;;;8.15;3.40;;;;;;;-145.01;100.00;64805.59;4996411;28;20043;-63
2021/08/20 09:38:45;;;;;;;6.82;3.47;;;;;;;-145.01;100.00;64805.59;4994056;28;20073;-63
2021/08/20 09:41:14;;;;;;;4.95;3.15;;;;;;;-145.01;100.00;64805.59;4993777;28;20038;-63
2021/08/20 09:43:40;;;;;;;4.80;3.30;;;;;;;-145.01;100.00;64805.59;4993919;28;20092;-63
2021/08/20 09:46:13;;;;;;;4.53;2.80;;;;;;;-145.01;100.00;64805.59;4993737;28;20038;-63
2021/08/20 09:49:01;;;;;;;4.82;2.92;;;;;;;-145.01;100.00;64805.59;4994162;28;20033;-63
2021/08/20 09:51:30;;;;;;;5.25;3.15;;;;;;;-145.01;100.00;64805.59;4993295;28;20046;-63
2021/08/20 09:53:59;;;;;;;5.50;3.10;;;;;;;-145.01;100.00;64805.59;4993986;28;20022;-63
2021/08/20 09:56:27;;;;;;;4.00;2.88;;;;;;;-145.01;100.00;64805.59;4993385;28;20108;-64
2021/08/20 09:59:06;;;;;;;7.43;3.42;;;;;;;-145.01;100.00;64805.59;4993962;28;20022;-63
2021/08/20 10:01:34;;;;;;;6.78;3.30;;;;;;;-145.01;100.00;64805.59;4993709;28;20089;-63
2021/08/20 10:04:01;;;;;;;5.55;3.55;;;;;;;-145.01;100.00;64805.59;4993583;28;20056;-63
2021/08/20 10:06:38;;;;;;;5.05;3.30;;;;;;;-145.01;100.00;64805.59;4993378;28;20085;-63
2021/08/20 10:09:12;;;;;;;5.15;2.47;;;;;;;-145.01;100.00;64805.59;4992444;28;20048;-63
2021/08/20 10:11:49;;;;;;;3.97;2.47;;;;;;;-145.01;100.00;64805.59;4993213;28;20038;-63
2021/08/20 10:14:14;;;;;;;4.90;2.65;;;;;;;-145.01;100.00;64805.59;4975846;28;20042;-63
2021/08/20 10:16:40;;;;;;;6.35;2.85;;;;;;;-145.01;100.00;64805.59;4993202;28;20042;-63
2021/08/20 10:19:07;;;;;;;4.47;2.70;;;;;;;-145.01;100.00;64805.59;4992293;28;20050;-63
2021/08/20 10:21:33;;;;;;;4.15;2.53;;;;;;;-145.01;100.00;64805.59;4991705;28;20114;-63
2021/08/20 10:23:59;;;;;;;3.83;2.60;;;;;;;-145.01;100.00;64805.59;4993167;28;20469;-63
2021/08/20 10:26:25;;;;;;;6.93;3.40;;;;;;;-145.01;100.00;64805.59;4991691;28;20046;-63
2021/08/20 10:28:50;;;;;;;5.80;2.83;;;;;;;-145.01;100.00;64805.59;4992247;28;20153;-63
2021/08/20 10:31:16;;;;;;;6.40;3.17;;;;;;;-145.01;100.00;64805.59;4991773;28;20062;-63
2021/08/20 10:33:41;;;;;;;6.45;2.65;;;;;;;-145.01;100.00;64805.59;4976017;28;20085;-64
2021/08/20 10:36:09;;;;;;;4.63;2.70;;;;;;;-145.01;100.00;64805.59;4992686;28;20088;-63
2021/08/20 10:38:49;;;;;;;6.57;2.53;;;;;;;-145.01;100.00;64805.59;4992150;28;20049;-64
2021/08/20 10:41:16;;;;;;;5.30;2.92;;;;;;;-145.01;100.00;64805.59;4992791;28;20035;-63
2021/08/20 10:43:48;;;;;;;3.80;2.42;;;;;;;-145.01;100.00;64805.59;4993031;28;20539;-64
2021/08/20 10:46:35;;;;;;;6.10;3.25;;;;;;;-145.01;100.00;64805.59;4992881;28;20062;-63
2021/08/20 10:49:14;;;;;;;4.97;2.42;;;;;;;-145.01;100.00;64805.59;4992975;28;20026;-63
2021/08/20 10:51:52;;;;;;;4.20;2.50;;;;;;;-145.01;100.00;64805.59;4992742;28;20034;-63
2021/08/20 10:54:41;;;;;;;6.45;2.20;;;;;;;-145.01;100.00;64805.59;4993171;28;20547;-63
2021/08/20 10:57:07;;;;;;;3.93;2.63;;;;;;;-145.01;100.00;64805.59;4991401;28;20066;-63
2021/08/20 10:59:39;;;;;;;6.45;2.63;;;;;;;-145.01;100.00;64805.59;4992973;28;20730;-63